Drummond Island, MI

9:15 PM EST on February 23, 2017 (GMT -0500)
Potagannissing Bay Front | | Change Station
Active Advisory: Winter Weather Advisory

Elev 587 ft 46.06 °N, 83.67 °W | Updated 15 seconds ago

Clear
Clear
30.8 °F
Feels Like 25 °F
N
6.0
Wind Variable Wind from WNW
Gusts 8.0 mph

Today
High -- | Low -- °F
--% Chance of Precip.
Yesterday
High -- | Low -- °F
Precip. -- in
Pressure 29.91 in
Visibility 10.0 miles
Clouds Clear
Windchill 25 °F
Dew Point 25 °F
Humidity 80%
Rainfall 0.14 in
Snow Depth Not available.
7:23 AM 6:13 PM
Waning Crescent, 7% visible
METAR KDRM 240156Z AUTO 32003KT 10SM CLR M01/M05 A2991 RMK AO2 T10131050
Pressure 29.91 in
Visibility 10.0 miles
Clouds Clear
Windchill 25 °F
Dew Point 25 °F
Humidity 80%
Rainfall 0.14 in
Snow Depth Not available.
7:23 AM 6:13 PM
Waning Crescent, 7% visible
METAR KDRM 240156Z AUTO 32003KT 10SM CLR M01/M05 A2991 RMK AO2 T10131050

Get Your Daily Forecast Email!

Thanks for signing up!

Be on the lookout for a verification email in your inbox.

You'll start receiving the daily forecast at 8 AM.

×

10-Day Weather Forecast

Almanac

Astronomy

Feb. 23, 2017 Rise Set
Actual Time
Civil Twilight
Nautical Twilight
Astronomical Twilight
Moon
Length of Visible Light
Length of Day
Tomorrow will be .
, % of the Moon is Illuminated

Today's Extremes

State Highs State Lows

Community

WunderPhotos

Upload Photos

1,962,540 photos uploaded!

WunderBlog® & News

Nearby

Air Quality

  Air Quality AQ Index Pollutant
Not available.

Snow Depth

Station Depth Elevation

Earthquake Activity

City Distance Mag. Time & Date
Minimum magnitude displayed is 2.5.

Coastal Water Temperatures

Place Temperature

Stations

Nearby Weather Stations

Station Location Temp. Windchill Dew Point Humidity Wind Precip. Elev Updated Type
                   

Watches & Warnings

Winter Weather Advisory
Issued: 3:05 PM EST Feb. 23, 2017 – National Weather Service

... Winter Weather Advisory in effect from 7 PM Friday to 1 am EST
Saturday...

The National Weather Service in Gaylord has issued a Winter
Weather Advisory, which is in effect from 7 PM Friday to 1 am EST
Saturday.

* Expect a wintry mix to develop after midnight tonight and then
diminish after midnight Saturday.

* The heaviest snowfall rates will occur between 7 am and 1 PM
Friday... and the greatest amount of ice accumulation will
occur between 7 PM Friday and 1 am Saturday.

* Total snow accumulations of 1 to 3 inches and ice
accumulations of 1/10 to 1/4 of an inch are expected.

* Look for reduced visibilities at times.

* Power outages and tree damage are possible due to the ice.
Travel will be dangerous and nearly impossible.

Precautionary/preparedness actions...

A Winter Weather Advisory means that periods of snow... sleet or
freezing rain will cause travel difficulties. Be prepared for
slippery roads and limited visibilities... and use caution while
driving. For the latest Road conditions... go to the mdot website
at Michigan.Gov.